createdAt,value
2023-01-09T00:00:04.133Z,76.76
2023-01-09T00:02:36.002Z,76.45
2023-01-09T00:05:08.733Z,76.80
2023-01-09T00:07:39.891Z,76.95
2023-01-09T00:10:12.889Z,76.65
2023-01-09T00:12:44.004Z,76.67
2023-01-09T00:15:15.052Z,76.75
2023-01-09T00:17:48.331Z,77.11
2023-01-09T00:20:19.119Z,77.27
2023-01-09T00:22:50.247Z,77.51
2023-01-09T00:25:22.906Z,77.35
2023-01-09T00:27:53.737Z,77.20
2023-01-09T00:30:24.566Z,77.36
2023-01-09T00:32:56.732Z,77.66
2023-01-09T00:35:29.593Z,77.42
2023-01-09T00:38:00.375Z,77.40
2023-01-09T00:40:31.218Z,77.37
2023-01-09T00:43:02.262Z,77.29
2023-01-09T00:45:33.398Z,77.42
2023-01-09T00:48:10.171Z,77.54
2023-01-09T00:50:41.163Z,77.56
2023-01-09T00:53:15.367Z,77.43
2023-01-09T00:55:46.187Z,77.40
2023-01-09T00:58:17.032Z,77.16
2023-01-09T01:00:47.995Z,77.40
2023-01-09T01:03:18.783Z,77.38
2023-01-09T01:06:07.305Z,77.23
2023-01-09T01:08:37.983Z,77.07
2023-01-09T01:11:10.468Z,77.28
2023-01-09T01:13:42.629Z,77.29
2023-01-09T01:16:15.320Z,77.34
2023-01-09T01:18:46.156Z,77.36
2023-01-09T01:21:18.171Z,76.97
2023-01-09T01:23:49.171Z,77.26
2023-01-09T01:26:20.307Z,77.28
2023-01-09T01:28:51.136Z,77.39
2023-01-09T01:31:22.302Z,77.44
2023-01-09T01:33:53.176Z,77.16
2023-01-09T01:36:23.945Z,77.10
2023-01-09T01:38:54.672Z,77.34
2023-01-09T01:41:30.431Z,77.33
2023-01-09T01:44:04.551Z,77.40
2023-01-09T01:46:36.516Z,77.39
2023-01-09T01:49:14.407Z,77.33
2023-01-09T01:51:51.051Z,77.35
2023-01-09T01:54:27.663Z,77.34
2023-01-09T01:57:02.531Z,77.61
2023-01-09T01:59:38.597Z,77.29
2023-01-09T02:02:11.373Z,77.71
2023-01-09T02:04:42.948Z,77.65
2023-01-09T02:07:14.144Z,77.66
2023-01-09T02:09:46.245Z,77.74
2023-01-09T02:12:23.768Z,77.60
2023-01-09T02:14:59.476Z,77.57
2023-01-09T02:17:57.999Z,77.02
2023-01-09T02:20:44.839Z,77.37
2023-01-09T02:23:48.010Z,77.20
2023-01-09T02:26:48.279Z,77.39
2023-01-09T02:29:45.333Z,77.46
2023-01-09T02:32:28.662Z,77.65
2023-01-09T02:35:12.665Z,77.90
2023-01-09T02:37:50.140Z,77.71
2023-01-09T02:40:28.956Z,77.43
2023-01-09T02:43:01.762Z,77.63
2023-01-09T02:45:32.477Z,77.32
2023-01-09T02:48:03.229Z,77.53
2023-01-09T02:50:42.861Z,77.51
2023-01-09T02:53:49.766Z,77.52
2023-01-09T02:56:43.126Z,77.48
2023-01-09T02:59:23.659Z,77.22
2023-01-09T03:02:09.031Z,77.12
2023-01-09T03:04:51.122Z,77.18
2023-01-09T03:07:26.752Z,77.40
2023-01-09T03:10:07.659Z,77.22
2023-01-09T03:12:41.047Z,77.03
2023-01-09T03:15:16.415Z,77.16
2023-01-09T03:17:52.107Z,77.21
2023-01-09T03:20:27.708Z,77.35
2023-01-09T03:23:01.197Z,76.91
2023-01-09T03:25:33.225Z,76.98
2023-01-09T03:28:06.106Z,77.34
2023-01-09T03:30:38.006Z,77.20
2023-01-09T03:33:08.732Z,77.11
2023-01-09T03:35:39.483Z,77.08
2023-01-09T03:38:10.215Z,77.17
2023-01-09T03:40:43.296Z,76.78
2023-01-09T03:43:14.176Z,76.92
2023-01-09T03:45:45.052Z,77.31
2023-01-09T03:48:15.923Z,77.06
2023-01-09T03:50:47.479Z,76.89
2023-01-09T03:53:18.623Z,76.96
2023-01-09T03:55:51.925Z,76.98
2023-01-09T03:58:23.779Z,76.95
2023-01-09T04:00:58.662Z,76.85
2023-01-09T04:03:29.737Z,76.74
2023-01-09T04:06:00.966Z,76.90
2023-01-09T04:08:31.800Z,76.55
2023-01-09T04:11:03.686Z,76.68
2023-01-09T04:13:36.735Z,76.56
2023-01-09T04:16:08.445Z,76.13
2023-01-09T04:18:39.148Z,76.35
2023-01-09T04:21:09.886Z,76.23
2023-01-09T04:23:40.622Z,76.25
2023-01-09T04:26:11.322Z,76.31
2023-01-09T04:28:42.127Z,76.59
2023-01-09T04:31:13.631Z,76.47
2023-01-09T04:33:44.623Z,76.50
2023-01-09T04:36:15.569Z,76.20
2023-01-09T04:38:46.413Z,76.83
2023-01-09T04:41:37.080Z,76.50
2023-01-09T04:44:07.955Z,76.69
2023-01-09T04:46:38.892Z,76.50
2023-01-09T04:49:09.739Z,76.45
2023-01-09T04:51:41.031Z,76.65
2023-01-09T04:54:12.268Z,76.78
2023-01-09T04:56:43.162Z,76.50
2023-01-09T04:59:14.411Z,76.55
2023-01-09T05:01:45.340Z,76.91
2023-01-09T05:04:16.431Z,76.89
2023-01-09T05:06:47.329Z,76.70
2023-01-09T05:09:18.545Z,76.96
2023-01-09T05:11:49.359Z,76.73
2023-01-09T05:14:20.254Z,76.47
2023-01-09T05:16:51.129Z,76.68
2023-01-09T05:19:23.774Z,76.76
2023-01-09T05:21:54.471Z,76.50
2023-01-09T05:24:25.782Z,76.67
2023-01-09T05:26:56.477Z,76.81
2023-01-09T05:29:27.842Z,76.82
2023-01-09T05:31:59.172Z,76.84
2023-01-09T05:34:29.924Z,77.03
2023-01-09T05:37:00.865Z,76.93
2023-01-09T05:39:31.553Z,77.02
2023-01-09T05:42:02.344Z,76.91
2023-01-09T05:44:33.055Z,77.09
2023-01-09T05:47:03.846Z,77.07
2023-01-09T05:49:35.051Z,77.13
2023-01-09T05:52:06.094Z,76.71
2023-01-09T05:54:36.932Z,76.83
2023-01-09T05:57:07.722Z,77.01
2023-01-09T05:59:38.504Z,76.97
2023-01-09T06:02:09.743Z,77.15
2023-01-09T06:04:40.608Z,77.07
2023-01-09T06:07:11.942Z,76.79
2023-01-09T06:09:43.913Z,76.75
2023-01-09T06:12:14.741Z,77.28
2023-01-09T06:14:45.580Z,77.03
2023-01-09T06:17:16.715Z,77.15
2023-01-09T06:19:48.209Z,76.82
2023-01-09T06:22:18.912Z,76.87
2023-01-09T06:24:49.546Z,76.83
2023-01-09T06:27:20.285Z,77.17
2023-01-09T06:29:51.167Z,76.76
2023-01-09T06:32:22.279Z,77.13
2023-01-09T06:34:52.944Z,76.95
2023-01-09T06:37:23.730Z,76.62
2023-01-09T06:39:54.992Z,76.68
2023-01-09T06:42:25.785Z,76.59
2023-01-09T06:44:56.434Z,76.71
2023-01-09T06:47:27.134Z,76.83
2023-01-09T06:49:58.379Z,76.75
2023-01-09T06:52:29.034Z,76.88
2023-01-09T06:54:59.688Z,76.83
2023-01-09T06:57:30.353Z,77.16
2023-01-09T07:00:01.143Z,77.21
2023-01-09T07:02:31.898Z,77.35
2023-01-09T07:05:02.759Z,77.00
2023-01-09T07:07:33.523Z,76.90
2023-01-09T07:10:04.238Z,76.96
2023-01-09T07:12:35.063Z,76.94
2023-01-09T07:15:06.647Z,76.76
2023-01-09T07:17:37.437Z,77.17
2023-01-09T07:20:10.510Z,77.14
2023-01-09T07:22:41.173Z,77.00
2023-01-09T07:25:12.223Z,77.03
2023-01-09T07:27:43.470Z,76.78
2023-01-09T07:30:16.984Z,76.85
2023-01-09T07:32:47.653Z,76.87
2023-01-09T07:35:18.546Z,76.52
2023-01-09T07:37:50.271Z,76.71
2023-01-09T07:40:21.282Z,77.15
2023-01-09T07:42:56.726Z,76.88
2023-01-09T07:45:27.533Z,76.62
2023-01-09T07:47:59.225Z,76.52
2023-01-09T07:50:29.979Z,76.43
2023-01-09T07:53:00.791Z,76.39
2023-01-09T07:55:31.395Z,76.80
2023-01-09T07:58:02.176Z,76.80
2023-01-09T08:00:33.289Z,76.68
2023-01-09T08:03:04.256Z,76.71
2023-01-09T08:05:35.026Z,76.41
2023-01-09T08:08:07.213Z,76.16
2023-01-09T08:10:37.870Z,75.95
2023-01-09T08:13:08.584Z,75.65
2023-01-09T08:15:39.395Z,75.84
2023-01-09T08:18:10.167Z,75.72
2023-01-09T08:20:40.938Z,75.10
2023-01-09T08:23:11.752Z,74.91
2023-01-09T08:25:42.709Z,75.09
2023-01-09T08:28:13.422Z,74.95
2023-01-09T08:30:44.246Z,75.32
2023-01-09T08:33:15.067Z,75.38
2023-01-09T08:35:46.897Z,75.02
2023-01-09T08:38:17.645Z,75.30
2023-01-09T08:40:51.131Z,75.18
2023-01-09T08:43:39.511Z,75.57
2023-01-09T08:46:36.353Z,75.08
2023-01-09T08:49:07.184Z,74.57
2023-01-09T08:51:37.893Z,74.43
2023-01-09T08:54:08.595Z,74.44
2023-01-09T08:56:39.254Z,74.18
2023-01-09T08:59:11.205Z,73.92
2023-01-09T09:01:42.054Z,74.05
2023-01-09T09:04:13.161Z,73.58
2023-01-09T09:06:43.931Z,73.35
2023-01-09T09:09:15.187Z,73.42
2023-01-09T09:11:45.927Z,73.52
2023-01-09T09:14:34.359Z,73.70
2023-01-09T09:17:05.037Z,73.53
2023-01-09T09:19:35.754Z,73.43
2023-01-09T09:22:06.546Z,73.23
2023-01-09T09:24:37.592Z,73.32
2023-01-09T09:27:08.407Z,73.14
2023-01-09T09:29:39.153Z,73.12
2023-01-09T09:32:09.851Z,73.20
2023-01-09T09:34:40.650Z,73.41
2023-01-09T09:37:11.515Z,73.56
2023-01-09T09:39:42.500Z,73.54
2023-01-09T09:42:44.717Z,73.74
2023-01-09T09:45:27.434Z,73.81
2023-01-09T09:48:09.023Z,73.70
2023-01-09T09:50:59.303Z,73.70
2023-01-09T09:53:36.483Z,73.72
2023-01-09T09:56:12.226Z,73.81
2023-01-09T09:58:45.643Z,73.68
2023-01-09T10:01:21.934Z,73.63
2023-01-09T10:03:57.127Z,73.49
2023-01-09T10:06:31.832Z,73.44
2023-01-09T10:09:08.254Z,73.47
2023-01-09T10:11:45.269Z,73.67
2023-01-09T10:14:23.725Z,73.89
2023-01-09T10:17:17.467Z,73.89
2023-01-09T10:20:01.819Z,73.95
2023-01-09T10:22:45.398Z,74.00
2023-01-09T10:25:29.126Z,73.92
2023-01-09T10:28:24.646Z,74.00
2023-01-09T10:30:59.253Z,73.88
2023-01-09T10:33:43.100Z,74.15
2023-01-09T10:36:43.310Z,74.31
2023-01-09T10:39:20.095Z,74.15
2023-01-09T10:41:59.453Z,74.08
2023-01-09T10:44:37.282Z,73.96
2023-01-09T10:47:16.730Z,74.32
2023-01-09T10:49:50.717Z,74.36
2023-01-09T10:52:25.750Z,74.36
2023-01-09T10:55:01.206Z,74.57
2023-01-09T10:57:43.704Z,74.38
2023-01-09T11:00:26.046Z,74.48
2023-01-09T11:02:59.587Z,74.67
2023-01-09T11:05:33.066Z,74.77
2023-01-09T11:08:07.580Z,74.81
2023-01-09T11:10:50.076Z,75.02
2023-01-09T11:13:24.326Z,75.13
2023-01-09T11:16:10.277Z,75.06
2023-01-09T11:18:49.664Z,75.18
2023-01-09T11:21:35.949Z,75.46
2023-01-09T11:24:29.719Z,75.66
2023-01-09T11:27:29.033Z,75.45
2023-01-09T11:30:17.292Z,75.53
2023-01-09T11:32:49.547Z,75.44
2023-01-09T11:35:26.614Z,75.43
2023-01-09T11:38:17.766Z,75.46
2023-01-09T11:40:51.848Z,75.43
2023-01-09T11:43:41.788Z,75.67
2023-01-09T11:46:31.077Z,75.59
2023-01-09T11:49:03.396Z,75.78
2023-01-09T11:51:35.684Z,75.68
2023-01-09T11:54:17.822Z,75.68
2023-01-09T11:56:49.223Z,75.79
2023-01-09T11:59:22.652Z,76.11
2023-01-09T12:02:29.513Z,76.02
2023-01-09T12:05:02.917Z,76.04
2023-01-09T12:08:06.067Z,76.09
2023-01-09T12:11:07.650Z,75.96
2023-01-09T12:13:55.728Z,76.24
2023-01-09T12:16:37.346Z,76.21
2023-01-09T12:19:28.563Z,76.45
2023-01-09T12:22:11.645Z,76.53
2023-01-09T12:25:07.443Z,76.79
2023-01-09T12:27:55.872Z,76.89
2023-01-09T12:30:41.565Z,77.02
2023-01-09T12:33:28.449Z,77.05
2023-01-09T12:36:10.811Z,77.26
2023-01-09T12:38:55.627Z,77.34
2023-01-09T12:41:43.816Z,77.29
2023-01-09T12:44:44.236Z,77.37
2023-01-09T12:47:45.459Z,77.26
2023-01-09T12:50:40.352Z,77.44
2023-01-09T12:53:21.022Z,77.54
2023-01-09T12:56:01.167Z,77.67
2023-01-09T12:58:44.798Z,77.82
2023-01-09T13:01:23.344Z,78.03
2023-01-09T13:04:04.166Z,77.92
2023-01-09T13:06:38.766Z,78.06
2023-01-09T13:09:22.691Z,78.12
2023-01-09T13:12:03.378Z,78.16
2023-01-09T13:14:47.114Z,78.22
2023-01-09T13:17:24.381Z,78.14
2023-01-09T13:19:55.170Z,78.17
2023-01-09T13:22:28.874Z,78.18
2023-01-09T13:25:22.627Z,78.25
2023-01-09T13:28:00.605Z,78.26
2023-01-09T13:30:49.420Z,78.50
2023-01-09T13:33:25.067Z,78.62
2023-01-09T13:35:58.547Z,78.74
2023-01-09T13:38:31.731Z,78.72
2023-01-09T13:41:32.243Z,78.73
2023-01-09T13:44:05.849Z,78.84
2023-01-09T13:46:43.498Z,78.88
2023-01-09T13:49:54.450Z,79.03
2023-01-09T13:52:39.810Z,79.04
2023-01-09T13:55:30.151Z,78.97
2023-01-09T13:58:27.834Z,79.07
2023-01-09T14:01:02.346Z,79.20
2023-01-09T14:03:38.631Z,79.15
2023-01-09T14:06:19.423Z,79.07
2023-01-09T14:09:06.655Z,79.18
2023-01-09T14:11:37.899Z,79.33
2023-01-09T14:14:23.038Z,79.22
2023-01-09T14:16:53.786Z,79.22
2023-01-09T14:19:35.928Z,79.11
2023-01-09T14:22:07.731Z,79.12
2023-01-09T14:24:44.259Z,79.12
2023-01-09T14:27:45.714Z,79.20
2023-01-09T14:30:35.147Z,79.37
2023-01-09T14:33:26.298Z,79.41
2023-01-09T14:36:10.086Z,79.39
2023-01-09T14:38:45.075Z,79.43
2023-01-09T14:41:55.299Z,79.30
2023-01-09T14:44:29.971Z,79.29
2023-01-09T14:47:06.672Z,79.35
2023-01-09T14:49:42.176Z,79.43
2023-01-09T14:52:24.918Z,79.32
2023-01-09T14:54:58.979Z,79.42
2023-01-09T14:57:31.894Z,79.36
2023-01-09T15:00:05.210Z,79.29
2023-01-09T15:02:38.507Z,79.30
2023-01-09T15:05:14.531Z,79.47
2023-01-09T15:07:50.539Z,79.52
2023-01-09T15:10:24.579Z,79.53
2023-01-09T15:12:58.898Z,79.51
2023-01-09T15:15:30.176Z,79.53
2023-01-09T15:18:03.701Z,79.42
2023-01-09T15:20:36.165Z,79.51
2023-01-09T15:23:07.100Z,79.68
2023-01-09T15:25:40.215Z,79.72
2023-01-09T15:28:27.059Z,79.63
2023-01-09T15:31:02.182Z,79.59
2023-01-09T15:33:31.652Z,79.56
2023-01-09T15:36:04.886Z,79.62
2023-01-09T15:38:36.678Z,79.71
2023-01-09T15:41:11.798Z,79.74
2023-01-09T15:43:45.288Z,79.69
2023-01-09T15:46:18.442Z,79.63
2023-01-09T15:48:56.383Z,79.68
2023-01-09T15:51:27.892Z,79.62
2023-01-09T15:54:00.876Z,79.66
2023-01-09T15:56:33.414Z,79.63
2023-01-09T15:59:18.172Z,79.66
2023-01-09T16:02:09.006Z,79.77
2023-01-09T16:04:43.085Z,79.73
2023-01-09T16:07:17.581Z,79.71
2023-01-09T16:09:52.728Z,79.65
2023-01-09T16:12:26.055Z,79.75
2023-01-09T16:15:00.444Z,79.66
2023-01-09T16:17:31.992Z,79.70
2023-01-09T16:20:16.778Z,79.68
2023-01-09T16:22:57.572Z,79.62
2023-01-09T16:25:32.698Z,79.69
2023-01-09T16:30:57.785Z,79.85
2023-01-09T16:33:30.679Z,79.71
2023-01-09T16:36:02.843Z,79.72
2023-01-09T16:38:33.549Z,79.62
2023-01-09T16:41:23.848Z,79.67
2023-01-09T16:43:54.549Z,79.70
2023-01-09T16:46:25.560Z,79.70
2023-01-09T16:48:57.575Z,79.74
2023-01-09T16:51:29.661Z,79.78
2023-01-09T16:54:00.343Z,79.80
2023-01-09T16:56:33.056Z,79.77
2023-01-09T16:59:03.754Z,79.80
2023-01-09T17:01:34.456Z,79.82
2023-01-09T17:04:13.679Z,79.92
2023-01-09T17:06:45.274Z,79.83
2023-01-09T17:09:18.553Z,79.89
2023-01-09T17:11:49.310Z,79.84
2023-01-09T17:14:20.019Z,79.78
2023-01-09T17:16:50.831Z,79.88
2023-01-09T17:19:25.523Z,79.86
2023-01-09T17:21:56.236Z,79.96
2023-01-09T17:24:44.663Z,79.93
2023-01-09T17:27:33.050Z,79.94
2023-01-09T17:30:17.576Z,79.92
2023-01-09T17:32:49.491Z,79.91
2023-01-09T17:35:20.212Z,80.02
2023-01-09T17:37:50.874Z,79.96
2023-01-09T17:40:24.240Z,79.90
2023-01-09T17:42:55.024Z,80.07
2023-01-09T17:45:25.778Z,80.07
2023-01-09T17:47:56.557Z,80.08
2023-01-09T17:50:31.223Z,80.09
2023-01-09T17:53:02.006Z,80.13
2023-01-09T17:55:34.975Z,80.19
2023-01-09T17:58:05.899Z,80.27
2023-01-09T18:00:37.705Z,80.28
2023-01-09T18:03:08.787Z,80.35
2023-01-09T18:05:39.461Z,80.33
2023-01-09T18:08:13.923Z,80.34
2023-01-09T18:10:48.422Z,80.28
2023-01-09T18:13:19.750Z,80.18
2023-01-09T18:15:50.534Z,80.29
2023-01-09T18:18:22.553Z,80.28
2023-01-09T18:20:53.843Z,80.46
2023-01-09T18:23:24.924Z,80.45
2023-01-09T18:25:55.575Z,80.37
2023-01-09T18:28:26.338Z,80.53
2023-01-09T18:30:57.066Z,80.39
2023-01-09T18:33:28.031Z,80.44
2023-01-09T18:36:06.161Z,80.47
2023-01-09T18:38:37.587Z,80.48
2023-01-09T18:41:08.722Z,80.63
2023-01-09T18:43:39.414Z,80.48
2023-01-09T18:46:10.584Z,80.60
2023-01-09T18:48:41.430Z,80.47
2023-01-09T18:51:12.143Z,80.37
2023-01-09T18:53:42.961Z,80.49
2023-01-09T18:56:13.690Z,80.49
2023-01-09T18:58:44.344Z,80.42
2023-01-09T19:01:15.404Z,80.35
2023-01-09T19:03:46.173Z,80.39
2023-01-09T19:06:16.970Z,80.44
2023-01-09T19:08:47.756Z,80.36
2023-01-09T19:11:18.515Z,80.27
2023-01-09T19:13:50.807Z,80.28
2023-01-09T19:16:21.631Z,80.34
2023-01-09T19:18:52.424Z,80.37
2023-01-09T19:21:26.843Z,80.41
2023-01-09T19:23:58.936Z,80.31
2023-01-09T19:26:31.281Z,80.17
2023-01-09T19:29:02.089Z,80.18
2023-01-09T19:31:34.189Z,80.14
2023-01-09T19:34:04.949Z,80.27
2023-01-09T19:36:35.973Z,80.19
2023-01-09T19:39:07.413Z,80.10
2023-01-09T19:41:38.306Z,80.18
2023-01-09T19:44:09.097Z,80.16
2023-01-09T19:46:39.985Z,80.20
2023-01-09T19:49:10.790Z,80.13
2023-01-09T19:51:42.487Z,80.16
2023-01-09T19:54:13.754Z,80.15
2023-01-09T19:56:45.736Z,80.09
2023-01-09T19:59:16.444Z,79.94
2023-01-09T20:01:48.080Z,79.93
2023-01-09T20:04:18.819Z,79.82
2023-01-09T20:06:51.311Z,79.76
2023-01-09T20:09:22.743Z,79.62
2023-01-09T20:11:53.412Z,79.44
2023-01-09T20:14:24.767Z,79.26
2023-01-09T20:17:00.904Z,79.15
2023-01-09T20:19:32.655Z,79.10
2023-01-09T20:22:03.523Z,79.17
2023-01-09T20:24:34.248Z,79.38
2023-01-09T20:27:05.023Z,79.18
2023-01-09T20:29:36.073Z,78.97
2023-01-09T20:32:07.810Z,79.16
2023-01-09T20:34:38.888Z,78.99
2023-01-09T20:37:09.650Z,78.89
2023-01-09T20:39:40.810Z,78.90
2023-01-09T20:42:11.864Z,78.86
2023-01-09T20:44:42.519Z,78.91
2023-01-09T20:47:13.253Z,78.77
2023-01-09T20:49:44.035Z,78.75
2023-01-09T20:52:14.708Z,78.55
2023-01-09T20:54:46.129Z,78.72
2023-01-09T20:57:16.788Z,78.66
2023-01-09T20:59:47.586Z,78.67
2023-01-09T21:02:18.535Z,78.72
2023-01-09T21:04:49.392Z,78.64
2023-01-09T21:07:20.418Z,78.46
2023-01-09T21:09:51.047Z,78.44
2023-01-09T21:12:35.691Z,78.29
2023-01-09T21:15:09.919Z,78.42
2023-01-09T21:17:42.196Z,78.39
2023-01-09T21:20:15.975Z,78.28
2023-01-09T21:22:46.699Z,78.39
2023-01-09T21:25:17.600Z,78.42
2023-01-09T21:27:49.778Z,78.25
2023-01-09T21:30:20.684Z,78.17
2023-01-09T21:32:51.905Z,78.31
2023-01-09T21:35:22.658Z,78.09
2023-01-09T21:37:53.375Z,78.16
2023-01-09T21:40:24.134Z,78.01
2023-01-09T21:43:12.691Z,78.09
2023-01-09T21:46:01.320Z,77.90
2023-01-09T21:48:32.121Z,78.03
2023-01-09T21:51:05.905Z,77.98
2023-01-09T21:53:36.696Z,77.85
2023-01-09T21:56:08.790Z,77.97
2023-01-09T21:58:39.649Z,77.90
2023-01-09T22:01:10.451Z,77.86
2023-01-09T22:03:41.145Z,77.61
2023-01-09T22:06:12.313Z,77.69
2023-01-09T22:08:43.095Z,77.85
2023-01-09T22:11:16.099Z,77.61
2023-01-09T22:13:51.390Z,77.53
2023-01-09T22:16:21.260Z,77.66
2023-01-09T22:18:51.959Z,77.64
2023-01-09T22:21:22.989Z,77.77
2023-01-09T22:23:53.925Z,77.76
2023-01-09T22:26:24.756Z,77.79
2023-01-09T22:28:57.099Z,77.83
2023-01-09T22:31:29.784Z,77.88
2023-01-09T22:34:02.508Z,77.93
2023-01-09T22:36:33.420Z,77.83
2023-01-09T22:39:04.673Z,77.98
2023-01-09T22:41:35.404Z,77.90
2023-01-09T22:44:06.158Z,77.89
2023-01-09T22:46:37.025Z,77.78
2023-01-09T22:49:07.853Z,77.81
2023-01-09T22:51:38.783Z,77.67
2023-01-09T22:54:09.587Z,77.80
2023-01-09T22:56:40.469Z,77.78
2023-01-09T22:59:11.509Z,77.82
2023-01-09T23:01:42.237Z,77.79
2023-01-09T23:04:16.479Z,77.80
2023-01-09T23:06:47.267Z,77.78
2023-01-09T23:09:18.006Z,77.90
2023-01-09T23:12:03.966Z,77.83
2023-01-09T23:14:37.418Z,77.65
2023-01-09T23:17:09.753Z,77.59
2023-01-09T23:19:40.989Z,77.68
2023-01-09T23:22:11.767Z,77.68
2023-01-09T23:24:42.516Z,77.66
2023-01-09T23:27:13.189Z,77.60
2023-01-09T23:29:45.998Z,77.57
2023-01-09T23:32:16.750Z,77.61
2023-01-09T23:34:49.546Z,77.71
2023-01-09T23:37:20.204Z,77.65
2023-01-09T23:39:51.058Z,77.55
2023-01-09T23:42:39.787Z,77.60
2023-01-09T23:45:11.947Z,77.56
2023-01-09T23:47:42.798Z,77.62
2023-01-09T23:50:14.348Z,77.44
2023-01-09T23:52:45.849Z,77.52
2023-01-09T23:55:16.969Z,77.59
2023-01-09T23:57:48.285Z,77.47
